createdAt,value
2018-04-17T00:00:51.446Z,53.25
2018-04-17T00:01:51.443Z,52.97
2018-04-17T00:02:51.438Z,53.16
2018-04-17T00:03:51.446Z,53.06
2018-04-17T00:04:51.422Z,53.54
2018-04-17T00:05:51.428Z,54.11
2018-04-17T00:06:51.424Z,54.02
2018-04-17T00:07:51.412Z,54.39
2018-04-17T00:08:51.404Z,54.78
2018-04-17T00:09:51.405Z,55.54
2018-04-17T00:10:51.400Z,56.11
2018-04-17T00:11:51.386Z,55.92
2018-04-17T00:12:51.390Z,55.26
2018-04-17T00:13:51.385Z,55.35
2018-04-17T00:14:51.385Z,55.16
2018-04-17T00:15:51.370Z,55.54
2018-04-17T00:16:51.378Z,55.44
2018-04-17T00:17:51.363Z,55.73
2018-04-17T00:18:51.358Z,55.07
2018-04-17T00:19:51.361Z,55.16
2018-04-17T00:20:51.349Z,55.54
2018-04-17T00:21:51.336Z,54.78
2018-04-17T00:22:51.342Z,54.97
2018-04-17T00:23:51.335Z,54.97
2018-04-17T00:24:51.326Z,53.92
2018-04-17T00:25:51.341Z,53.64
2018-04-17T00:26:51.318Z,54.11
2018-04-17T00:27:51.309Z,54.21
2018-04-17T00:28:51.308Z,53.92
2018-04-17T00:29:51.292Z,53.83
2018-04-17T00:30:51.294Z,54.11
2018-04-17T00:31:51.294Z,54.11
2018-04-17T00:32:51.284Z,53.73
2018-04-17T00:33:51.317Z,53.83
2018-04-17T00:34:51.279Z,54.68
2018-04-17T00:35:51.268Z,54.88
2018-04-17T00:36:51.265Z,53.44
2018-04-17T00:37:51.256Z,53.25
2018-04-17T00:38:51.250Z,52.40
2018-04-17T00:39:51.244Z,52.20
2018-04-17T00:40:51.248Z,53.25
2018-04-17T00:41:51.241Z,52.56
2018-04-17T00:42:51.261Z,52.66
2018-04-17T00:43:51.228Z,52.56
2018-04-17T00:44:51.229Z,52.47
2018-04-17T00:45:51.219Z,51.51
2018-04-17T00:46:51.219Z,50.94
2018-04-17T00:47:51.206Z,51.04
2018-04-17T00:48:51.203Z,51.89
2018-04-17T00:49:51.214Z,52.28
2018-04-17T00:50:51.190Z,53.32
2018-04-17T00:51:51.192Z,52.94
2018-04-17T00:52:51.183Z,51.14
2018-04-17T00:53:51.185Z,51.32
2018-04-17T00:54:51.174Z,51.10
2018-04-17T00:55:51.173Z,51.10
2018-04-17T00:56:51.203Z,52.06
2018-04-17T00:57:51.157Z,51.97
2018-04-17T00:58:51.155Z,52.53
2018-04-17T00:59:51.174Z,52.63
2018-04-17T01:00:51.168Z,53.20
2018-04-17T01:01:51.137Z,53.46
2018-04-17T01:02:51.128Z,53.17
2018-04-17T01:03:51.135Z,53.84
2018-04-17T01:04:51.109Z,53.08
2018-04-17T01:05:51.115Z,52.89
2018-04-17T01:06:51.117Z,51.93
2018-04-17T01:07:51.130Z,51.65
2018-04-17T01:08:51.100Z,51.37
2018-04-17T01:09:51.104Z,51.08
2018-04-17T01:10:51.092Z,51.08
2018-04-17T01:11:51.073Z,50.79
2018-04-17T01:12:51.070Z,50.42
2018-04-17T01:13:51.075Z,50.79
2018-04-17T01:14:51.075Z,50.04
2018-04-17T01:15:51.080Z,49.85
2018-04-17T01:16:51.062Z,49.56
2018-04-17T01:17:51.052Z,49.27
2018-04-17T01:18:51.034Z,49.56
2018-04-17T01:19:51.047Z,49.37
2018-04-17T01:20:51.045Z,49.18
2018-04-17T01:21:51.019Z,49.94
2018-04-17T01:22:51.025Z,49.06
2018-04-17T01:23:51.019Z,49.37
2018-04-17T01:24:50.996Z,49.25
2018-04-17T01:25:51.006Z,49.73
2018-04-17T01:26:50.990Z,49.85
2018-04-17T01:27:50.981Z,49.46
2018-04-17T01:28:50.999Z,49.56
2018-04-17T01:29:50.974Z,48.61
2018-04-17T02:02:10.713Z,43.93
2018-04-17T02:03:10.612Z,43.73
2018-04-17T02:05:03.506Z,43.73
2018-04-17T02:06:03.470Z,43.83
2018-04-17T02:07:56.385Z,44.31
2018-04-17T02:08:56.353Z,44.59
2018-04-17T02:10:49.242Z,45.16
2018-04-17T02:11:49.233Z,45.16
2018-04-17T02:13:42.169Z,45.45
2018-04-17T02:14:42.134Z,45.26
2018-04-17T02:16:35.040Z,45.56
2018-04-17T02:17:34.999Z,46.11
2018-04-17T02:19:27.981Z,46.11
2018-04-17T02:20:27.945Z,45.75
2018-04-17T02:22:20.893Z,46.01
2018-04-17T02:23:20.818Z,46.11
2018-04-17T02:25:13.718Z,46.01
2018-04-17T02:26:13.721Z,46.49
2018-04-17T02:28:06.640Z,47.25
2018-04-17T02:29:06.609Z,46.97
2018-04-17T02:31:50.573Z,48.11
2018-04-17T02:32:50.541Z,48.30
2018-04-17T02:34:43.516Z,46.94
2018-04-17T02:35:43.417Z,46.47
2018-04-17T02:37:36.328Z,46.09
2018-04-17T02:38:36.308Z,45.80
2018-04-17T02:39:36.289Z,46.19
2018-04-17T02:40:36.294Z,45.83
2018-04-17T02:41:36.281Z,46.01
2018-04-17T02:42:36.284Z,46.40
2018-04-17T02:43:36.271Z,46.20
2018-04-17T02:44:36.277Z,47.06
2018-04-17T02:45:36.254Z,46.88
2018-04-17T02:46:36.265Z,46.85
2018-04-17T02:47:36.259Z,47.13
2018-04-17T02:48:36.238Z,47.33
2018-04-17T02:49:36.244Z,47.80
2018-04-17T02:50:36.241Z,48.08
2018-04-17T02:51:36.221Z,47.99
2018-04-17T02:52:36.219Z,48.08
2018-04-17T02:53:36.200Z,48.18
2018-04-17T02:54:36.199Z,48.56
2018-04-17T02:55:36.194Z,48.27
2018-04-17T02:56:36.199Z,48.75
2018-04-17T02:57:36.199Z,48.85
2018-04-17T02:58:36.181Z,49.04
2018-04-17T02:59:36.162Z,48.96
2018-04-17T03:00:36.159Z,49.06
2018-04-17T03:01:36.155Z,49.25
2018-04-17T03:02:36.162Z,49.54
2018-04-17T03:03:36.146Z,49.44
2018-04-17T03:04:36.136Z,49.91
2018-04-17T03:05:36.129Z,50.08
2018-04-17T03:06:36.120Z,50.08
2018-04-17T03:07:36.120Z,50.18
2018-04-17T03:08:36.114Z,50.48
2018-04-17T03:09:36.100Z,50.96
2018-04-17T03:10:36.114Z,51.06
2018-04-17T03:11:36.092Z,50.77
2018-04-17T03:12:36.078Z,50.87
2018-04-17T03:13:36.094Z,51.43
2018-04-17T03:14:36.066Z,51.43
2018-04-17T03:15:36.065Z,51.82
2018-04-17T03:16:36.057Z,51.82
2018-04-17T03:17:36.050Z,52.39
2018-04-17T03:18:36.038Z,52.20
2018-04-17T03:19:36.032Z,52.39
2018-04-17T03:20:36.034Z,52.58
2018-04-17T03:21:36.040Z,52.93
2018-04-17T03:22:36.023Z,52.93
2018-04-17T03:23:36.021Z,52.64
2018-04-17T03:24:36.003Z,53.41
2018-04-17T03:25:35.989Z,53.41
2018-04-17T03:26:35.988Z,53.43
2018-04-17T03:27:35.985Z,53.88
2018-04-17T03:28:35.988Z,53.78
2018-04-17T03:29:35.969Z,53.69
2018-04-17T03:30:35.965Z,54.17
2018-04-17T03:31:35.953Z,54.17
2018-04-17T03:32:35.945Z,54.26
2018-04-17T03:33:35.939Z,54.77
2018-04-17T03:34:35.934Z,54.74
2018-04-17T03:35:35.932Z,54.93
2018-04-17T03:36:35.937Z,55.11
2018-04-17T03:37:35.920Z,55.88
2018-04-17T03:38:35.912Z,56.26
2018-04-17T03:39:35.904Z,55.88
2018-04-17T03:40:35.895Z,55.97
2018-04-17T03:41:35.879Z,56.26
2018-04-17T03:42:35.892Z,56.63
2018-04-17T03:43:35.867Z,56.26
2018-04-17T03:44:35.864Z,56.63
2018-04-17T03:45:35.873Z,56.54
2018-04-17T03:46:35.854Z,57.11
2018-04-17T03:47:35.851Z,57.02
2018-04-17T03:48:35.848Z,57.02
2018-04-17T03:49:35.826Z,57.40
2018-04-17T03:50:35.824Z,57.97
2018-04-17T03:51:35.835Z,57.68
2018-04-17T03:52:35.818Z,57.21
2018-04-17T03:53:35.812Z,56.63
2018-04-17T03:54:35.809Z,55.88
2018-04-17T03:55:35.795Z,56.26
2018-04-17T03:56:35.804Z,55.97
2018-04-17T03:57:35.787Z,55.97
2018-04-17T03:58:35.776Z,56.16
2018-04-17T03:59:35.761Z,56.63
2018-04-17T04:00:35.768Z,56.54
2018-04-17T04:01:35.756Z,56.45
2018-04-17T04:02:35.748Z,57.21
2018-04-17T04:03:35.743Z,57.11
2018-04-17T04:04:35.737Z,57.02
2018-04-17T04:05:35.720Z,57.40
2018-04-17T04:06:35.729Z,57.68
2018-04-17T04:07:35.708Z,57.68
2018-04-17T04:08:35.720Z,57.59
2018-04-17T04:09:35.705Z,58.16
2018-04-17T04:10:35.695Z,58.16
2018-04-17T04:11:35.684Z,58.16
2018-04-17T04:12:35.673Z,58.63
2018-04-17T04:13:35.677Z,58.25
2018-04-17T04:14:35.666Z,58.73
2018-04-17T04:15:35.649Z,59.20
2018-04-17T04:16:35.663Z,59.01
2018-04-17T04:17:35.642Z,58.92
2018-04-17T04:18:35.633Z,58.83
2018-04-17T04:19:35.626Z,58.92
2018-04-17T04:20:35.623Z,59.30
2018-04-17T04:21:35.615Z,59.68
2018-04-17T04:22:35.607Z,59.58
2018-04-17T04:23:35.610Z,59.20
2018-04-17T04:24:35.593Z,59.39
2018-04-17T04:25:35.594Z,59.96
2018-04-17T04:26:35.584Z,59.58
2018-04-17T04:27:35.568Z,59.96
2018-04-17T04:28:35.566Z,60.16
2018-04-17T04:29:35.567Z,60.25
2018-04-17T04:30:35.564Z,60.06
2018-04-17T04:31:35.573Z,60.06
2018-04-17T04:32:35.548Z,60.06
2018-04-17T04:33:35.538Z,60.35
2018-04-17T04:34:35.540Z,60.25
2018-04-17T04:35:35.518Z,60.16
2018-04-17T04:36:35.514Z,60.06
2018-04-17T04:37:35.508Z,60.16
2018-04-17T04:38:35.500Z,60.06
2018-04-17T04:39:35.492Z,60.16
2018-04-17T04:40:35.488Z,60.25
2018-04-17T04:41:35.478Z,59.96
2018-04-17T04:42:35.470Z,60.35
2018-04-17T04:43:35.468Z,59.68
2018-04-17T04:44:35.455Z,59.87
2018-04-17T04:45:35.451Z,60.06
2018-04-17T04:46:35.430Z,60.06
2018-04-17T04:47:35.434Z,59.58
2018-04-17T04:48:35.435Z,59.87
2018-04-17T04:49:35.443Z,59.58
2018-04-17T04:50:35.411Z,59.01
2018-04-17T04:51:35.410Z,59.49
2018-04-17T04:52:35.397Z,58.54
2018-04-17T04:53:35.394Z,58.73
2018-04-17T04:54:35.392Z,58.63
2018-04-17T04:55:35.371Z,58.35
2018-04-17T04:56:35.394Z,58.63
2018-04-17T04:57:35.371Z,58.35
2018-04-17T04:58:35.358Z,58.25
2018-04-17T04:59:35.371Z,57.78
2018-04-17T05:00:35.342Z,57.71
2018-04-17T05:01:35.347Z,57.97
2018-04-17T05:02:35.335Z,57.71
2018-04-17T05:03:35.327Z,57.43
2018-04-17T05:04:35.315Z,57.04
2018-04-17T05:05:35.318Z,56.95
2018-04-17T05:06:35.319Z,56.76
2018-04-17T05:07:35.296Z,56.57
2018-04-17T05:08:35.296Z,55.71
2018-04-17T05:09:35.287Z,55.71
2018-04-17T05:10:35.283Z,55.62
2018-04-17T05:11:35.278Z,55.15
2018-04-17T05:12:35.265Z,54.96
2018-04-17T05:13:35.261Z,54.19
2018-04-17T05:14:35.277Z,54.10
2018-04-17T05:15:35.241Z,53.34
2018-04-17T05:16:35.254Z,53.43
2018-04-17T05:17:35.242Z,52.29
2018-04-17T05:18:35.232Z,52.39
2018-04-17T05:19:35.246Z,51.75
2018-04-17T05:20:35.228Z,51.75
2018-04-17T05:21:35.219Z,51.08
2018-04-17T05:22:35.209Z,50.89
2018-04-17T05:23:35.223Z,50.89
2018-04-17T05:24:35.221Z,50.04
2018-04-17T05:25:35.209Z,50.13
2018-04-17T05:26:35.186Z,49.85
2018-04-17T05:27:35.180Z,50.04
2018-04-17T05:28:35.182Z,49.85
2018-04-17T05:29:35.168Z,49.85
2018-04-17T05:30:35.166Z,49.85
2018-04-17T05:31:35.177Z,50.04
2018-04-17T05:32:35.147Z,50.13
2018-04-17T05:33:35.159Z,50.79
2018-04-17T05:34:35.139Z,50.79
2018-04-17T05:35:35.137Z,50.99
2018-04-17T05:36:35.130Z,51.30
2018-04-17T05:37:35.121Z,51.30
2018-04-17T05:38:35.124Z,51.58
2018-04-17T05:39:35.130Z,51.87
2018-04-17T05:40:35.119Z,52.63
2018-04-17T05:41:35.111Z,53.39
2018-04-17T05:42:35.134Z,54.15
2018-04-17T05:43:35.103Z,55.29
2018-04-17T05:44:35.087Z,57.20
2018-04-17T05:45:35.085Z,57.67
2018-04-17T05:46:35.083Z,58.94
2018-04-17T05:47:35.078Z,58.75
2018-04-17T05:48:35.078Z,59.70
2018-04-17T05:49:35.067Z,59.99
2018-04-17T05:50:35.065Z,61.51
2018-04-17T05:51:35.066Z,63.04
2018-04-17T05:52:35.064Z,63.60
2018-04-17T05:53:35.041Z,65.61
2018-04-17T05:54:35.048Z,67.22
2018-04-17T05:55:35.038Z,68.56
2018-04-17T05:56:35.045Z,70.56
2018-04-17T05:57:35.075Z,71.32
2018-04-17T05:58:35.024Z,70.47
2018-04-17T05:59:35.021Z,71.13
2018-04-17T06:00:35.016Z,71.03
2018-04-17T06:01:34.999Z,71.13
2018-04-17T06:02:35.006Z,72.50
2018-04-17T06:03:35.014Z,73.17
2018-04-17T06:04:34.996Z,74.21
2018-04-17T06:05:34.994Z,74.50
2018-04-17T06:06:35.000Z,74.40
2018-04-17T06:07:34.986Z,76.12
2018-04-17T06:08:34.975Z,76.21
2018-04-17T06:09:34.969Z,78.16
2018-04-17T06:10:34.977Z,77.78
2018-04-17T06:11:34.976Z,78.54
2018-04-17T06:12:34.968Z,80.16
2018-04-17T06:13:34.957Z,82.07
2018-04-17T06:14:34.957Z,83.59
2018-04-17T06:15:34.966Z,84.49
2018-04-17T06:16:34.942Z,84.49
2018-04-17T06:17:34.969Z,86.98
2018-04-17T06:18:34.934Z,87.07
2018-04-17T06:19:34.933Z,88.69
2018-04-17T06:20:34.939Z,91.64
2018-04-17T06:21:34.928Z,93.65
2018-04-17T06:22:34.938Z,93.31
2018-04-17T06:23:34.922Z,95.03
2018-04-17T06:24:34.924Z,97.51
2018-04-17T06:25:34.938Z,98.47
2018-04-17T06:26:34.902Z,99.99
2018-04-17T06:27:34.899Z,98.99
2018-04-17T06:28:34.905Z,97.08
2018-04-17T06:29:34.899Z,97.18
2018-04-17T06:30:34.893Z,97.37
2018-04-17T06:31:34.888Z,99.95
2018-04-17T06:32:34.880Z,98.23
2018-04-17T06:33:34.884Z,99.99
2018-04-17T06:34:34.897Z,99.99
2018-04-17T06:35:34.878Z,99.99
2018-04-17T06:36:34.899Z,99.99
2018-04-17T06:37:34.868Z,99.99
2018-04-17T06:38:34.872Z,99.99
2018-04-17T06:39:34.874Z,99.99
2018-04-17T06:40:34.866Z,99.99
2018-04-17T06:41:34.863Z,99.99
2018-04-17T06:42:34.864Z,99.99
2018-04-17T06:43:34.859Z,99.99
2018-04-17T06:44:34.848Z,99.99
2018-04-17T06:45:34.860Z,99.99
2018-04-17T06:46:34.867Z,99.99
2018-04-17T06:47:34.895Z,99.99
2018-04-17T06:48:34.842Z,99.99
2018-04-17T06:49:34.850Z,99.99
2018-04-17T06:50:34.840Z,99.99
2018-04-17T06:51:34.853Z,99.99
2018-04-17T06:52:34.837Z,99.99
2018-04-17T06:53:34.837Z,99.99
2018-04-17T06:54:34.831Z,99.99
2018-04-17T06:55:34.825Z,99.99
2018-04-17T06:56:34.831Z,99.99
2018-04-17T06:57:34.831Z,99.99
2018-04-17T06:58:34.867Z,99.99
2018-04-17T06:59:34.819Z,99.99
2018-04-17T07:00:34.809Z,99.99
2018-04-17T07:01:34.832Z,99.99
2018-04-17T07:02:34.801Z,99.99
2018-04-17T07:03:34.816Z,99.99
2018-04-17T07:04:34.811Z,99.99
2018-04-17T07:05:34.800Z,99.99
2018-04-17T07:06:34.807Z,99.99
2018-04-17T07:07:34.804Z,99.99
2018-04-17T07:08:34.810Z,99.99
2018-04-17T07:09:34.808Z,99.99
2018-04-17T07:10:34.792Z,99.99
2018-04-17T07:11:34.867Z,99.99
2018-04-17T07:12:34.801Z,99.99
2018-04-17T07:13:34.795Z,99.99
2018-04-17T07:14:34.789Z,99.99
2018-04-17T07:15:34.797Z,99.99
2018-04-17T07:16:34.791Z,99.99
2018-04-17T07:17:34.794Z,99.99
2018-04-17T07:18:34.798Z,99.99
2018-04-17T07:19:34.788Z,99.99
2018-04-17T07:20:34.784Z,99.99
2018-04-17T07:21:34.785Z,99.99
2018-04-17T07:22:34.799Z,99.99
2018-04-17T07:23:34.801Z,99.99
2018-04-17T07:24:34.800Z,98.67
2018-04-17T07:25:34.779Z,97.81
2018-04-17T07:26:34.766Z,96.22
2018-04-17T07:27:34.793Z,97.14
2018-04-17T07:28:34.777Z,96.51
2018-04-17T07:29:34.770Z,94.54
2018-04-17T07:30:34.779Z,91.61
2018-04-17T07:31:34.785Z,89.88
2018-04-17T07:32:34.779Z,90.45
2018-04-17T07:33:34.780Z,89.44
2018-04-17T07:34:34.828Z,85.25
2018-04-17T07:35:34.795Z,84.76
2018-04-17T07:36:34.805Z,80.92
2018-04-17T07:37:34.808Z,82.81
2018-04-17T07:38:34.810Z,86.85
2018-04-17T07:39:34.817Z,85.21
2018-04-17T07:40:34.891Z,85.11
2018-04-17T07:41:34.828Z,84.54
2018-04-17T07:42:34.840Z,84.73
2018-04-17T07:43:34.847Z,86.13
2018-04-17T07:44:34.854Z,87.48
2018-04-17T07:45:34.882Z,85.93
2018-04-17T07:46:34.880Z,84.81
2018-04-17T07:47:34.893Z,82.27
2018-04-17T07:48:34.891Z,83.28
2018-04-17T07:49:34.910Z,80.66
2018-04-17T07:50:34.912Z,75.88
2018-04-17T07:51:34.919Z,73.60
2018-04-17T07:52:34.945Z,73.99
2018-04-17T07:53:34.939Z,72.58
2018-04-17T07:54:34.947Z,73.05
2018-04-17T07:55:34.964Z,76.73
2018-04-17T07:56:34.971Z,77.83
2018-04-17T07:57:35.029Z,78.25
2018-04-17T07:58:34.992Z,76.01
2018-04-17T07:59:35.008Z,73.44
2018-04-17T08:00:35.022Z,73.08
2018-04-17T08:01:35.033Z,71.64
2018-04-17T08:02:35.064Z,68.46
2018-04-17T08:03:35.079Z,67.55
2018-04-17T08:04:35.080Z,67.97
2018-04-17T08:05:35.089Z,68.91
2018-04-17T08:06:35.095Z,69.48
2018-04-17T08:07:35.102Z,71.70
2018-04-17T08:08:35.120Z,73.31
2018-04-17T08:09:35.126Z,69.81
2018-04-17T08:10:35.131Z,69.17
2018-04-17T08:11:35.163Z,67.52
2018-04-17T08:12:35.169Z,67.11
2018-04-17T08:13:35.180Z,67.33
2018-04-17T08:14:35.189Z,69.39
2018-04-17T08:15:35.201Z,69.52
2018-04-17T08:16:35.214Z,66.78
2018-04-17T08:17:35.287Z,65.85
2018-04-17T08:18:35.264Z,62.72
2018-04-17T08:19:35.254Z,60.30
2018-04-17T08:20:35.287Z,58.59
2018-04-17T08:21:35.289Z,59.50
2018-04-17T08:22:35.302Z,60.57
2018-04-17T08:23:35.319Z,59.61
2018-04-17T08:24:35.327Z,56.64
2018-04-17T08:25:35.337Z,55.33
2018-04-17T08:26:35.345Z,53.27
2018-04-17T08:27:35.375Z,55.56
2018-04-17T08:28:35.384Z,57.66
2018-04-17T08:29:35.412Z,59.22
2018-04-17T08:30:35.457Z,61.44
2018-04-17T08:31:35.434Z,60.96
2018-04-17T08:32:35.443Z,58.47
2018-04-17T08:33:35.472Z,61.41
2018-04-17T08:34:35.470Z,62.76
2018-04-17T08:35:35.492Z,63.85
2018-04-17T08:36:35.534Z,65.11
2018-04-17T08:37:35.512Z,64.43
2018-04-17T08:38:35.538Z,64.86
2018-04-17T08:39:35.572Z,65.27
2018-04-17T08:40:35.558Z,63.05
2018-04-17T08:41:35.580Z,64.92
2018-04-17T08:42:35.592Z,66.78
2018-04-17T08:43:35.605Z,62.89
2018-04-17T08:44:35.626Z,64.56
2018-04-17T08:45:35.633Z,69.09
2018-04-17T08:46:35.665Z,70.94
2018-04-17T08:47:35.699Z,66.30
2018-04-17T08:48:35.696Z,69.48
2018-04-17T08:49:35.717Z,67.94
2018-04-17T08:50:35.707Z,69.71
2018-04-17T08:51:35.734Z,66.40
2018-04-17T08:52:35.740Z,64.28
2018-04-17T08:53:35.750Z,66.20
2018-04-17T08:54:35.765Z,67.14
2018-04-17T08:55:35.782Z,68.39
2018-04-17T08:56:35.805Z,65.20
2018-04-17T08:57:35.816Z,64.18
2018-04-17T08:58:35.831Z,64.53
2018-04-17T08:59:35.881Z,62.63
2018-04-17T09:00:35.864Z,63.73
2018-04-17T09:01:35.876Z,63.31
2018-04-17T09:02:35.892Z,63.24
2018-04-17T09:03:35.908Z,63.66
2018-04-17T09:04:35.922Z,61.92
2018-04-17T09:05:35.930Z,64.34
2018-04-17T09:06:35.951Z,61.34
2018-04-17T09:07:35.969Z,62.92
2018-04-17T09:08:35.984Z,62.79
2018-04-17T09:09:35.999Z,63.73
2018-04-17T09:10:36.028Z,63.85
2018-04-17T09:11:36.036Z,62.50
2018-04-17T09:12:36.043Z,60.08
2018-04-17T09:13:36.072Z,59.89
2018-04-17T09:14:36.109Z,58.62
2018-04-17T09:15:36.108Z,54.98
2018-04-17T09:16:36.108Z,55.20
2018-04-17T09:17:36.123Z,56.34
2018-04-17T09:18:36.150Z,56.50
2018-04-17T09:19:36.184Z,54.98
2018-04-17T09:20:36.177Z,55.15
2018-04-17T09:21:36.200Z,55.94
2018-04-17T09:22:36.222Z,55.85
2018-04-17T09:23:36.256Z,54.88
2018-04-17T09:24:36.274Z,54.49
2018-04-17T09:25:36.267Z,56.92
2018-04-17T09:26:36.283Z,55.66
2018-04-17T09:27:36.382Z,55.46
2018-04-17T09:28:36.319Z,55.17
2018-04-17T09:29:36.344Z,57.21
2018-04-17T09:30:36.370Z,57.31
2018-04-17T09:31:36.388Z,55.15
2018-04-17T09:32:36.397Z,56.85
2018-04-17T09:33:36.417Z,54.37
2018-04-17T09:34:36.429Z,55.02
2018-04-17T09:35:36.451Z,56.95
2018-04-17T09:36:36.479Z,54.79
2018-04-17T09:37:36.481Z,54.47
2018-04-17T09:38:36.503Z,58.07
2018-04-17T09:39:36.509Z,57.98
2018-04-17T09:40:36.537Z,59.02
2018-04-17T09:41:36.552Z,60.83
2018-04-17T09:42:36.568Z,60.41
2018-04-17T09:43:36.583Z,60.96
2018-04-17T09:44:36.628Z,57.41
2018-04-17T09:45:36.626Z,55.76
2018-04-17T09:46:36.633Z,55.60
2018-04-17T09:47:36.655Z,57.24
2018-04-17T09:48:36.682Z,55.96
2018-04-17T09:49:36.699Z,59.22
2018-04-17T09:50:36.735Z,59.47
2018-04-17T09:51:36.721Z,56.36
2018-04-17T09:52:36.744Z,55.46
2018-04-17T09:53:36.762Z,52.29
2018-04-17T09:54:36.787Z,51.16
2018-04-17T09:55:36.801Z,53.39
2018-04-17T09:56:36.816Z,52.40
2018-04-17T09:57:36.920Z,54.16
2018-04-17T09:58:36.870Z,56.11
2018-04-17T09:59:36.874Z,53.65
2018-04-17T10:00:36.889Z,50.77
2018-04-17T10:01:36.902Z,51.52
2018-04-17T10:02:36.916Z,51.64
2018-04-17T10:03:36.967Z,49.68
2018-04-17T10:04:36.964Z,51.09
2018-04-17T10:05:36.976Z,50.35
2018-04-17T10:06:36.985Z,56.65
2018-04-17T10:07:37.019Z,54.85
2018-04-17T10:08:37.047Z,55.78
2018-04-17T10:09:37.045Z,52.49
2018-04-17T10:10:37.063Z,53.34
2018-04-17T10:11:37.078Z,52.90
2018-04-17T10:12:37.100Z,56.34
2018-04-17T10:13:37.119Z,54.03
2018-04-17T10:14:37.136Z,53.26
2018-04-17T10:15:37.146Z,53.07
2018-04-17T10:16:37.187Z,54.44
2018-04-17T10:17:37.197Z,56.45
2018-04-17T10:18:37.206Z,55.83
2018-04-17T10:19:37.229Z,57.63
2018-04-17T10:20:37.238Z,55.55
2018-04-17T10:21:37.258Z,54.77
2018-04-17T10:22:37.295Z,56.47
2018-04-17T10:23:37.298Z,55.00
2018-04-17T10:24:37.348Z,53.55
2018-04-17T10:25:37.327Z,50.45
2018-04-17T10:26:37.347Z,50.74
2018-04-17T10:27:37.375Z,49.58
2018-04-17T10:28:37.379Z,49.73
2018-04-17T10:29:37.395Z,52.97
2018-04-17T10:30:37.484Z,48.66
2018-04-17T10:31:37.446Z,49.65
2018-04-17T10:32:37.447Z,50.19
2018-04-17T10:33:37.469Z,49.66
2018-04-17T10:34:37.496Z,46.91
2018-04-17T10:35:37.529Z,44.64
2018-04-17T10:36:37.527Z,49.80
2018-04-17T10:37:37.543Z,50.21
2018-04-17T10:38:37.553Z,49.37
2018-04-17T10:39:37.576Z,49.54
2018-04-17T10:40:37.603Z,44.88
2018-04-17T10:41:37.626Z,47.45
2018-04-17T10:42:37.640Z,45.95
2018-04-17T10:43:37.648Z,43.70
2018-04-17T10:44:37.670Z,45.03
2018-04-17T10:45:37.690Z,44.27
2018-04-17T10:46:37.720Z,46.67
2018-04-17T10:47:37.727Z,45.54
2018-04-17T10:48:37.750Z,47.09
2018-04-17T10:49:37.778Z,51.27
2018-04-17T10:50:37.774Z,49.65
2018-04-17T10:51:37.801Z,49.54
2018-04-17T10:52:37.810Z,48.57
2018-04-17T10:53:37.834Z,45.47
2018-04-17T10:54:37.859Z,45.57
2018-04-17T10:55:37.863Z,45.35
2018-04-17T10:56:37.886Z,42.21
2018-04-17T10:57:37.920Z,44.20
2018-04-17T10:58:37.930Z,41.44
2018-04-17T10:59:37.941Z,45.39
2018-04-17T11:00:37.942Z,51.21
2018-04-17T11:01:38.042Z,54.54
2018-04-17T11:02:38.002Z,49.70
2018-04-17T11:03:37.988Z,50.35
2018-04-17T11:04:37.996Z,45.33
2018-04-17T11:05:38.033Z,47.67
2018-04-17T11:06:38.033Z,43.61
2018-04-17T11:07:38.046Z,44.29
2018-04-17T11:08:38.066Z,45.74
2018-04-17T11:09:38.077Z,44.64
2018-04-17T11:10:38.107Z,43.50
2018-04-17T11:11:38.113Z,43.20
2018-04-17T11:12:38.114Z,45.43
2018-04-17T11:13:38.140Z,49.43
2018-04-17T11:14:38.139Z,50.06
2018-04-17T11:15:38.152Z,49.90
2018-04-17T11:16:38.180Z,49.68
2018-04-17T11:17:38.201Z,50.43
2018-04-17T11:18:38.205Z,48.66
2018-04-17T11:19:38.218Z,49.73
2018-04-17T11:20:38.224Z,50.21
2018-04-17T11:21:38.239Z,50.73
2018-04-17T11:22:38.279Z,49.94
2018-04-17T11:23:38.292Z,50.81
2018-04-17T11:24:38.290Z,52.34
2018-04-17T11:25:38.287Z,52.92
2018-04-17T11:26:38.314Z,48.23
2018-04-17T11:27:38.301Z,46.42
2018-04-17T11:28:38.327Z,46.44
2018-04-17T11:29:38.333Z,46.64
2018-04-17T11:30:38.337Z,46.03
2018-04-17T11:31:38.363Z,45.23
2018-04-17T11:32:38.404Z,45.95
2018-04-17T11:33:38.390Z,44.21
2018-04-17T11:34:38.423Z,44.40
2018-04-17T11:35:38.409Z,42.60
2018-04-17T11:36:38.420Z,46.56
2018-04-17T11:37:38.437Z,47.89
2018-04-17T11:38:38.454Z,49.48
2018-04-17T11:39:38.468Z,49.84
2018-04-17T11:40:38.470Z,49.94
2018-04-17T11:41:38.476Z,50.40
2018-04-17T11:42:38.490Z,49.15
2018-04-17T11:43:38.505Z,50.62
2018-04-17T11:44:38.524Z,49.19
2018-04-17T11:45:38.525Z,48.64
2018-04-17T11:46:38.527Z,46.44
2018-04-17T11:47:38.543Z,46.73
2018-04-17T11:48:38.593Z,44.46
2018-04-17T11:49:38.561Z,44.06
2018-04-17T11:50:38.581Z,41.12
2018-04-17T11:51:38.583Z,39.88
2018-04-17T11:52:38.596Z,39.43
2018-04-17T11:53:38.607Z,39.39
2018-04-17T11:54:38.623Z,40.84
2018-04-17T11:55:38.628Z,39.76
2018-04-17T11:56:38.638Z,42.51
2018-04-17T11:57:38.661Z,44.19
2018-04-17T11:58:38.674Z,44.42
2018-04-17T11:59:38.697Z,45.09
2018-04-17T12:00:38.712Z,45.50
2018-04-17T12:01:38.738Z,45.52
2018-04-17T12:02:38.733Z,45.66
2018-04-17T12:03:38.743Z,45.51
2018-04-17T12:04:38.763Z,44.12
2018-04-17T12:05:38.777Z,42.16
2018-04-17T12:06:38.787Z,43.20
2018-04-17T12:07:38.807Z,45.96
2018-04-17T12:08:38.822Z,47.51
2018-04-17T12:09:38.833Z,49.32
2018-04-17T12:10:38.859Z,51.02
2018-04-17T12:11:38.844Z,51.02
2018-04-17T12:12:38.893Z,50.98
2018-04-17T12:13:38.876Z,49.29
2018-04-17T12:14:38.938Z,47.81
2018-04-17T12:15:38.893Z,46.95
2018-04-17T12:16:38.911Z,47.16
2018-04-17T12:17:38.926Z,44.19
2018-04-17T12:18:38.932Z,42.37
2018-04-17T12:19:38.950Z,45.48
2018-04-17T12:20:38.958Z,47.99
2018-04-17T12:21:38.965Z,48.25
2018-04-17T12:22:38.998Z,48.64
2018-04-17T12:23:38.984Z,47.58
2018-04-17T12:24:39.004Z,46.88
2018-04-17T12:25:39.011Z,48.71
2018-04-17T12:26:39.026Z,48.47
2018-04-17T12:27:39.060Z,50.21
2018-04-17T12:28:39.065Z,49.77
2018-04-17T12:29:39.071Z,50.42
2018-04-17T12:30:39.076Z,51.29
2018-04-17T12:31:39.087Z,50.32
2018-04-17T12:32:39.097Z,52.44
2018-04-17T12:33:39.104Z,50.23
2018-04-17T12:34:39.191Z,51.02
2018-04-17T12:35:39.125Z,53.36
2018-04-17T12:36:39.131Z,51.72
2018-04-17T12:37:39.139Z,49.79
2018-04-17T12:38:39.144Z,48.74
2018-04-17T12:39:39.150Z,48.44
2018-04-17T12:40:39.153Z,49.32
2018-04-17T12:41:39.185Z,49.51
2018-04-17T12:42:39.164Z,51.62
2018-04-17T12:43:39.169Z,51.24
2018-04-17T12:44:39.184Z,51.75
2018-04-17T12:45:39.180Z,50.21
2018-04-17T12:46:39.201Z,54.44
2018-04-17T12:47:39.202Z,52.73
2018-04-17T12:48:39.204Z,50.11
2018-04-17T12:49:39.200Z,52.61
2018-04-17T12:50:39.197Z,52.49
2018-04-17T12:51:39.207Z,50.83
2018-04-17T12:52:39.204Z,51.48
2018-04-17T12:53:39.220Z,51.29
2018-04-17T12:54:39.235Z,53.11
2018-04-17T12:55:39.233Z,54.49
2018-04-17T12:56:39.238Z,54.30
2018-04-17T12:57:39.244Z,54.49
2018-04-17T12:58:39.229Z,53.74
2018-04-17T12:59:39.241Z,51.65
2018-04-17T13:00:39.241Z,51.75
2018-04-17T13:01:39.236Z,51.02
2018-04-17T13:02:39.243Z,51.12
2018-04-17T13:03:39.237Z,52.37
2018-04-17T13:04:39.241Z,51.60
2018-04-17T13:05:39.261Z,52.66
2018-04-17T13:06:39.254Z,50.45
2018-04-17T13:07:39.307Z,50.83
2018-04-17T13:08:39.281Z,53.72
2018-04-17T13:09:39.272Z,50.35
2018-04-17T13:10:39.257Z,51.79
2018-04-17T13:11:39.263Z,52.59
2018-04-17T13:12:39.278Z,51.72
2018-04-17T13:13:39.271Z,51.89
2018-04-17T13:14:39.265Z,51.70
2018-04-17T13:15:39.333Z,50.18
2018-04-17T13:16:39.273Z,53.72
2018-04-17T13:17:39.277Z,52.56
2018-04-17T13:18:39.286Z,54.20
2018-04-17T13:19:39.280Z,53.23
2018-04-17T13:20:39.282Z,52.56
2018-04-17T13:21:39.307Z,50.83
2018-04-17T13:22:39.287Z,51.76
2018-04-17T13:23:39.287Z,53.53
2018-04-17T13:24:39.284Z,52.37
2018-04-17T13:25:39.287Z,49.84
2018-04-17T13:26:39.290Z,51.79
2018-04-17T13:27:39.302Z,51.60
2018-04-17T13:28:39.293Z,51.41
2018-04-17T13:29:39.929Z,50.15
2018-04-17T13:30:39.299Z,49.96
2018-04-17T13:31:39.301Z,50.25
2018-04-17T13:32:39.304Z,51.72
2018-04-17T13:33:39.296Z,52.59
2018-04-17T13:34:39.309Z,51.65
2018-04-17T13:35:39.310Z,51.72